sensor_id;sensor_type;location;lat;lon;timestamp;pressure;altitude;pressure_sealevel;temperature;humidity
57616;BME280;43816;52.054;-9.494;2023-12-28T00:00:11;98930.78;;;17.94;45.21
57616;BME280;43816;52.054;-9.494;2023-12-28T00:00:21;98849.38;;;17.39;44.86
57616;BME280;43816;52.054;-9.494;2023-12-28T00:00:34;98951.91;;;17.99;44.84
57616;BME280;43816;52.054;-9.494;2023-12-28T00:00:45;98906.47;;;17.73;44.80
57616;BME280;43816;52.054;-9.494;2023-12-28T00:00:55;98970.94;;;18.12;45.10
57616;BME280;43816;52.054;-9.494;2023-12-28T00:01:06;98976.81;;;18.09;44.86
57616;BME280;43816;52.054;-9.494;2023-12-28T00:02:40;98974.31;;;18.08;45.18
57616;BME280;43816;52.054;-9.494;2023-12-28T00:02:51;98919.88;;;17.74;44.80
57616;BME280;43816;52.054;-9.494;2023-12-28T00:03:04;98922.38;;;17.76;44.98
57616;BME280;43816;52.054;-9.494;2023-12-28T00:03:14;98889.31;;;17.59;44.96
57616;BME280;43816;52.054;-9.494;2023-12-28T00:11:50;98872.16;;;17.38;44.80
57616;BME280;43816;52.054;-9.494;2023-12-28T00:12:00;98974.94;;;17.90;44.70
57616;BME280;43816;52.054;-9.494;2023-12-28T00:12:13;98912.72;;;17.53;44.83
57616;BME280;43816;52.054;-9.494;2023-12-28T00:12:24;98966.75;;;17.90;44.96
57616;BME280;43816;52.054;-9.494;2023-12-28T00:12:37;98888.06;;;17.42;44.96
57616;BME280;43816;52.054;-9.494;2023-12-28T00:12:47;99000.06;;;18.05;44.69
57616;BME280;43816;52.054;-9.494;2023-12-28T00:12:58;98984.97;;;17.96;44.91
57616;BME280;43816;52.054;-9.494;2023-12-28T00:13:08;99004.03;;;18.09;44.98
57616;BME280;43816;52.054;-9.494;2023-12-28T00:13:21;99003.81;;;18.04;44.95
57616;BME280;43816;52.054;-9.494;2023-12-28T00:13:31;98999.00;;;18.06;45.07
57616;BME280;43816;52.054;-9.494;2023-12-28T00:13:42;98988.94;;;17.93;44.85
57616;BME280;43816;52.054;-9.494;2023-12-28T00:13:52;98959.84;;;17.81;44.89
57616;BME280;43816;52.054;-9.494;2023-12-28T00:14:05;99010.75;;;18.07;44.74
57616;BME280;43816;52.054;-9.494;2023-12-28T00:14:15;99011.56;;;18.07;45.02
57616;BME280;43816;52.054;-9.494;2023-12-28T00:14:26;99016.19;;;18.07;44.89
57616;BME280;43816;52.054;-9.494;2023-12-28T00:16:31;98925.94;;;17.63;44.93
57616;BME280;43816;52.054;-9.494;2023-12-28T00:16:41;98991.25;;;18.03;45.20
57616;BME280;43816;52.054;-9.494;2023-12-28T00:16:51;99015.53;;;18.11;44.96
57616;BME280;43816;52.054;-9.494;2023-12-28T00:17:02;99012.41;;;18.08;44.84
57616;BME280;43816;52.054;-9.494;2023-12-28T00:17:15;98987.28;;;17.92;45.00
57616;BME280;43816;52.054;-9.494;2023-12-28T00:17:34;99012.81;;;18.11;45.13
57616;BME280;43816;52.054;-9.494;2023-12-28T00:17:48;98878.84;;;17.29;45.09
57616;BME280;43816;52.054;-9.494;2023-12-28T00:18:07;98909.19;;;17.46;45.04
57616;BME280;43816;52.054;-9.494;2023-12-28T00:18:47;98849.16;;;17.14;44.88
57616;BME280;43816;52.054;-9.494;2023-12-28T00:19:03;98898.50;;;17.38;45.19
57616;BME280;43816;52.054;-9.494;2023-12-28T00:19:14;98890.16;;;17.39;44.96
57616;BME280;43816;52.054;-9.494;2023-12-28T00:19:27;98938.69;;;17.69;44.87
57616;BME280;43816;52.054;-9.494;2023-12-28T00:20:04;98982.88;;;17.98;45.11
57616;BME280;43816;52.054;-9.494;2023-12-28T00:20:14;98921.56;;;17.62;44.96
57616;BME280;43816;52.054;-9.494;2023-12-28T00:20:24;99010.75;;;18.14;44.93
57616;BME280;43816;52.054;-9.494;2023-12-28T00:20:35;99001.31;;;18.09;44.87
57616;BME280;43816;52.054;-9.494;2023-12-28T00:20:48;98990.84;;;18.00;45.04
57616;BME280;43816;52.054;-9.494;2023-12-28T00:20:58;99000.28;;;18.04;45.04
57616;BME280;43816;52.054;-9.494;2023-12-28T00:21:08;99002.13;;;18.03;44.89
57616;BME280;43816;52.054;-9.494;2023-12-28T00:21:22;98991.66;;;17.93;45.02
57616;BME280;43816;52.054;-9.494;2023-12-28T00:21:32;99020.78;;;18.13;44.92
57616;BME280;43816;52.054;-9.494;2023-12-28T00:21:42;99011.56;;;18.07;45.00
57616;BME280;43816;52.054;-9.494;2023-12-28T00:21:58;98968.03;;;17.94;44.79
57616;BME280;43816;52.054;-9.494;2023-12-28T00:22:08;98951.06;;;17.79;44.93
57616;BME280;43816;52.054;-9.494;2023-12-28T00:22:19;98979.53;;;18.09;44.94
57616;BME280;43816;52.054;-9.494;2023-12-28T00:23:04;98990.84;;;18.00;44.94
57616;BME280;43816;52.054;-9.494;2023-12-28T00:23:18;98923.00;;;17.58;45.00
57616;BME280;43816;52.054;-9.494;2023-12-28T00:23:28;99005.06;;;18.15;44.95
57616;BME280;43816;52.054;-9.494;2023-12-28T00:23:47;99010.75;;;18.14;45.05
57616;BME280;43816;52.054;-9.494;2023-12-28T00:24:00;98984.34;;;18.01;44.76
57616;BME280;43816;52.054;-9.494;2023-12-28T00:24:16;98869.22;;;17.27;44.93
57616;BME280;43816;52.054;-9.494;2023-12-28T00:24:29;98931.38;;;17.63;44.71
57616;BME280;43816;52.054;-9.494;2023-12-28T00:24:39;98969.47;;;17.90;44.91
57616;BME280;43816;52.054;-9.494;2023-12-28T00:24:50;98889.75;;;17.43;44.86
57616;BME280;43816;52.054;-9.494;2023-12-28T00:25:00;99015.75;;;18.10;44.92
57616;BME280;43816;52.054;-9.494;2023-12-28T00:25:14;99016.59;;;18.10;45.16
57616;BME280;43816;52.054;-9.494;2023-12-28T00:25:24;99004.84;;;18.03;44.68
57616;BME280;43816;52.054;-9.494;2023-12-28T00:25:34;99015.75;;;18.10;44.95
57616;BME280;43816;52.054;-9.494;2023-12-28T00:25:45;98968.41;;;17.84;44.67
57616;BME280;43816;52.054;-9.494;2023-12-28T00:25:55;98970.72;;;17.81;44.71
57616;BME280;43816;52.054;-9.494;2023-12-28T00:26:14;99022.03;;;18.10;44.67
57616;BME280;43816;52.054;-9.494;2023-12-28T00:26:24;98990.22;;;17.98;45.00
57616;BME280;43816;52.054;-9.494;2023-12-28T00:26:41;98994.81;;;17.97;44.87
57616;BME280;43816;52.054;-9.494;2023-12-28T00:26:51;98959.63;;;17.75;44.64
57616;BME280;43816;52.054;-9.494;2023-12-28T00:27:07;99001.50;;;18.01;45.10
57616;BME280;43816;52.054;-9.494;2023-12-28T00:27:17;99017.44;;;18.11;44.90
57616;BME280;43816;52.054;-9.494;2023-12-28T00:27:35;98993.16;;;17.96;44.91
57616;BME280;43816;52.054;-9.494;2023-12-28T00:27:48;98900.41;;;17.44;44.82
57616;BME280;43816;52.054;-9.494;2023-12-28T00:27:59;98896.41;;;17.33;44.90
57616;BME280;43816;52.054;-9.494;2023-12-28T00:28:09;98904.56;;;17.33;44.88
57616;BME280;43816;52.054;-9.494;2023-12-28T00:28:19;99024.34;;;18.14;45.13
57616;BME280;43816;52.054;-9.494;2023-12-28T00:28:32;98957.94;;;17.74;44.69
57616;BME280;43816;52.054;-9.494;2023-12-28T00:28:45;99004.03;;;18.03;45.16
57616;BME280;43816;52.054;-9.494;2023-12-28T00:28:55;98995.44;;;17.99;44.83
57616;BME280;43816;52.054;-9.494;2023-12-28T00:29:09;99001.31;;;18.03;44.75
57616;BME280;43816;52.054;-9.494;2023-12-28T00:29:19;99009.69;;;18.08;45.00
57616;BME280;43816;52.054;-9.494;2023-12-28T00:29:30;99031.03;;;18.18;44.93
57616;BME280;43816;52.054;-9.494;2023-12-28T00:29:40;98995.66;;;17.98;44.83
57616;BME280;43816;52.054;-9.494;2023-12-28T00:29:53;99019.94;;;18.12;44.91
57616;BME280;43816;52.054;-9.494;2023-12-28T00:30:20;99032.06;;;18.17;44.84
57616;BME280;43816;52.054;-9.494;2023-12-28T00:30:31;99027.06;;;18.14;44.82
57616;BME280;43816;52.054;-9.494;2023-12-28T00:30:44;99030.81;;;18.12;44.47
57616;BME280;43816;52.054;-9.494;2023-12-28T00:30:54;99011.56;;;18.07;44.84
57616;BME280;43816;52.054;-9.494;2023-12-28T00:31:04;99001.50;;;18.01;44.99
57616;BME280;43816;52.054;-9.494;2023-12-28T00:31:18;98989.38;;;17.90;45.07
57616;BME280;43816;52.054;-9.494;2023-12-28T00:31:30;98906.03;;;17.36;44.88
57616;BME280;43816;52.054;-9.494;2023-12-28T00:31:41;99022.03;;;18.17;44.89
57616;BME280;43816;52.054;-9.494;2023-12-28T00:31:51;99019.13;;;18.12;45.16
57616;BME280;43816;52.054;-9.494;2023-12-28T00:32:01;98983.09;;;17.90;44.76
57616;BME280;43816;52.054;-9.494;2023-12-28T00:32:14;99021.63;;;18.14;44.69
57616;BME280;43816;52.054;-9.494;2023-12-28T00:32:25;98966.72;;;17.76;44.74
57616;BME280;43816;52.054;-9.494;2023-12-28T00:32:41;98999.00;;;17.93;44.94
57616;BME280;43816;52.054;-9.494;2023-12-28T00:32:52;98980.56;;;17.88;44.83
57616;BME280;43816;52.054;-9.494;2023-12-28T00:33:05;98992.94;;;17.91;44.73
57616;BME280;43816;52.054;-9.494;2023-12-28T00:33:16;98979.91;;;17.86;44.96
57616;BME280;43816;52.054;-9.494;2023-12-28T00:33:26;98979.09;;;17.86;44.97
57616;BME280;43816;52.054;-9.494;2023-12-28T00:33:36;98956.69;;;17.70;44.57
57616;BME280;43816;52.054;-9.494;2023-12-28T00:33:47;99011.56;;;18.01;44.75
57616;BME280;43816;52.054;-9.494;2023-12-28T00:33:57;98990.22;;;17.91;44.99
57616;BME280;43816;52.054;-9.494;2023-12-28T00:35:34;98918.59;;;17.44;44.75
57616;BME280;43816;52.054;-9.494;2023-12-28T00:36:07;99039.19;;;18.18;44.98
57616;BME280;43816;52.054;-9.494;2023-12-28T00:36:21;98843.28;;;16.97;44.72
57616;BME280;43816;52.054;-9.494;2023-12-28T00:36:34;98912.31;;;17.36;44.80
57616;BME280;43816;52.054;-9.494;2023-12-28T00:36:44;98969.22;;;17.71;44.81
57616;BME280;43816;52.054;-9.494;2023-12-28T00:36:55;98976.56;;;17.78;44.80
57616;BME280;43816;52.054;-9.494;2023-12-28T00:37:05;99037.97;;;18.14;45.14
57616;BME280;43816;52.054;-9.494;2023-12-28T00:37:15;98995.03;;;17.89;44.84
57616;BME280;43816;52.054;-9.494;2023-12-28T00:37:26;98917.13;;;17.34;44.90
57616;BME280;43816;52.054;-9.494;2023-12-28T00:37:36;99034.78;;;18.17;45.16
57616;BME280;43816;52.054;-9.494;2023-12-28T00:37:48;98994.63;;;17.92;44.82
57616;BME280;43816;52.054;-9.494;2023-12-28T00:38:04;98995.84;;;17.89;44.80
57616;BME280;43816;52.054;-9.494;2023-12-28T00:38:17;98955.63;;;17.65;45.18
57616;BME280;43816;52.054;-9.494;2023-12-28T00:38:53;98862.09;;;17.06;44.99
57616;BME280;43816;52.054;-9.494;2023-12-28T00:39:09;98971.75;;;17.66;45.01
57616;BME280;43816;52.054;-9.494;2023-12-28T00:39:19;99023.69;;;17.98;44.99
57616;BME280;43816;52.054;-9.494;2023-12-28T00:39:30;98954.19;;;17.62;45.06
57616;BME280;43816;52.054;-9.494;2023-12-28T00:39:40;99030.19;;;17.97;44.99
57616;BME280;43816;52.054;-9.494;2023-12-28T00:39:50;99037.09;;;18.13;45.09
57616;BME280;43816;52.054;-9.494;2023-12-28T00:40:01;99051.97;;;18.17;45.00
57616;BME280;43816;52.054;-9.494;2023-12-28T00:40:17;99051.97;;;18.17;45.22
57616;BME280;43816;52.054;-9.494;2023-12-28T00:43:45;98950.38;;;17.43;44.91
57616;BME280;43816;52.054;-9.494;2023-12-28T00:44:07;99042.34;;;18.08;44.86
57616;BME280;43816;52.054;-9.494;2023-12-28T00:44:26;99059.06;;;18.11;44.84
57616;BME280;43816;52.054;-9.494;2023-12-28T00:44:39;98964.84;;;17.57;44.70
57616;BME280;43816;52.054;-9.494;2023-12-28T00:44:58;98980.09;;;17.65;44.74
57616;BME280;43816;52.054;-9.494;2023-12-28T00:45:17;99035.00;;;17.95;44.95
57616;BME280;43816;52.054;-9.494;2023-12-28T00:45:28;99073.09;;;18.15;44.81
57616;BME280;43816;52.054;-9.494;2023-12-28T00:45:44;98990.97;;;17.58;44.48
57616;BME280;43816;52.054;-9.494;2023-12-28T00:48:57;99070.63;;;18.14;45.10
57616;BME280;43816;52.054;-9.494;2023-12-28T00:49:13;98977.16;;;17.53;45.27
57616;BME280;43816;52.054;-9.494;2023-12-28T01:07:51;98970.44;;;17.35;44.91
57616;BME280;43816;52.054;-9.494;2023-12-28T01:08:04;99053.38;;;17.86;44.94
57616;BME280;43816;52.054;-9.494;2023-12-28T01:08:17;99084.44;;;18.05;45.06
57616;BME280;43816;52.054;-9.494;2023-12-28T01:08:30;99005.63;;;17.57;45.04
57616;BME280;43816;52.054;-9.494;2023-12-28T01:08:43;99057.34;;;17.84;45.13
57616;BME280;43816;52.054;-9.494;2023-12-28T01:08:56;99072.47;;;17.93;44.98
57616;BME280;43816;52.054;-9.494;2023-12-28T01:14:03;98980.66;;;17.27;45.08
57616;BME280;43816;52.054;-9.494;2023-12-28T01:14:14;98997.84;;;17.41;44.72
57616;BME280;43816;52.054;-9.494;2023-12-28T01:14:24;99038.91;;;17.72;44.83
57616;BME280;43816;52.054;-9.494;2023-12-28T01:14:34;99004.75;;;17.50;44.89
57616;BME280;43816;52.054;-9.494;2023-12-28T01:14:45;99031.16;;;17.63;44.91
57616;BME280;43816;52.054;-9.494;2023-12-28T01:14:55;99097.81;;;18.00;44.63
57616;BME280;43816;52.054;-9.494;2023-12-28T01:15:06;99084.63;;;17.97;44.92
57616;BME280;43816;52.054;-9.494;2023-12-28T01:15:16;99092.78;;;17.97;44.61
57616;BME280;43816;52.054;-9.494;2023-12-28T01:17:07;99043.72;;;17.70;44.82
57616;BME280;43816;52.054;-9.494;2023-12-28T01:17:17;99038.91;;;17.72;44.88
57616;BME280;43816;52.054;-9.494;2023-12-28T01:17:27;99076.88;;;17.94;44.62
57616;BME280;43816;52.054;-9.494;2023-12-28T01:17:38;99107.03;;;18.06;44.98
57616;BME280;43816;52.054;-9.494;2023-12-28T01:17:48;99101.59;;;18.06;44.76
57616;BME280;43816;52.054;-9.494;2023-12-28T01:17:58;99083.13;;;17.94;44.79
57616;BME280;43816;52.054;-9.494;2023-12-28T01:18:29;98950.94;;;17.18;44.85
57616;BME280;43816;52.054;-9.494;2023-12-28T01:18:39;99040.16;;;17.70;44.96
57616;BME280;43816;52.054;-9.494;2023-12-28T01:18:50;99012.50;;;17.53;44.81
57616;BME280;43816;52.054;-9.494;2023-12-28T01:19:00;99095.72;;;18.02;45.12
57616;BME280;43816;52.054;-9.494;2023-12-28T01:19:10;99075.19;;;17.93;44.75
57616;BME280;43816;52.054;-9.494;2023-12-28T01:20:19;99060.91;;;17.78;44.47
57616;BME280;43816;52.054;-9.494;2023-12-28T01:20:29;99099.88;;;17.98;44.80
57616;BME280;43816;52.054;-9.494;2023-12-28T01:20:40;99109.31;;;18.02;44.70
57616;BME280;43816;52.054;-9.494;2023-12-28T01:20:50;99104.50;;;18.04;44.89
57616;BME280;43816;52.054;-9.494;2023-12-28T01:21:00;99071.16;;;17.82;45.00
57616;BME280;43816;52.054;-9.494;2023-12-28T01:21:10;99113.28;;;18.06;44.93
57616;BME280;43816;52.054;-9.494;2023-12-28T01:21:21;99075.13;;;17.86;44.75
57616;BME280;43816;52.054;-9.494;2023-12-28T01:21:31;99109.75;;;18.06;44.70
57616;BME280;43816;52.054;-9.494;2023-12-28T01:21:41;99096.56;;;18.03;44.65
57616;BME280;43816;52.054;-9.494;2023-12-28T01:21:52;99109.31;;;18.02;44.72
57616;BME280;43816;52.054;-9.494;2023-12-28T01:22:02;99097.81;;;18.00;44.73
57616;BME280;43816;52.054;-9.494;2023-12-28T01:22:12;99088.56;;;17.88;44.76
57616;BME280;43816;52.054;-9.494;2023-12-28T01:22:23;99099.03;;;17.91;44.97
57616;BME280;43816;52.054;-9.494;2023-12-28T01:22:33;99080.00;;;17.91;44.97
57616;BME280;43816;52.054;-9.494;2023-12-28T01:22:43;99106.19;;;18.05;44.92
57616;BME280;43816;52.054;-9.494;2023-12-28T01:22:53;99107.84;;;18.06;44.86
57616;BME280;43816;52.054;-9.494;2023-12-28T01:23:04;99071.59;;;17.86;44.77
57616;BME280;43816;52.054;-9.494;2023-12-28T01:23:14;99101.16;;;18.02;44.83
57616;BME280;43816;52.054;-9.494;2023-12-28T01:23:24;99069.28;;;17.83;44.63
57616;BME280;43816;52.054;-9.494;2023-12-28T01:23:34;99084.81;;;17.96;44.78
57616;BME280;43816;52.054;-9.494;2023-12-28T01:23:45;99105.53;;;18.03;44.90
57616;BME280;43816;52.054;-9.494;2023-12-28T01:23:55;99049.75;;;17.59;44.60
57616;BME280;43816;52.054;-9.494;2023-12-28T01:24:05;99089.84;;;17.92;44.88
57616;BME280;43816;52.054;-9.494;2023-12-28T01:24:16;99099.88;;;17.98;45.10
57616;BME280;43816;52.054;-9.494;2023-12-28T01:24:26;99099.06;;;18.04;44.89
57616;BME280;43816;52.054;-9.494;2023-12-28T01:24:36;99101.97;;;17.96;44.79
57616;BME280;43816;52.054;-9.494;2023-12-28T01:24:47;99094.63;;;17.97;44.65
57616;BME280;43816;52.054;-9.494;2023-12-28T01:24:57;99080.19;;;17.89;44.65
57616;BME280;43816;52.054;-9.494;2023-12-28T01:25:07;99084.41;;;17.92;44.83
57616;BME280;43816;52.054;-9.494;2023-12-28T01:25:18;99063.41;;;17.79;44.84
57616;BME280;43816;52.054;-9.494;2023-12-28T01:25:28;99104.50;;;18.04;44.81
57616;BME280;43816;52.054;-9.494;2023-12-28T01:25:38;99111.63;;;18.05;44.42
57616;BME280;43816;52.054;-9.494;2023-12-28T01:25:48;99087.34;;;17.97;44.80
57616;BME280;43816;52.054;-9.494;2023-12-28T01:25:59;99112.88;;;18.09;44.69
57616;BME280;43816;52.054;-9.494;2023-12-28T01:26:13;99111.19;;;18.08;44.81
57616;BME280;43816;52.054;-9.494;2023-12-28T01:26:23;99116.88;;;18.07;44.70
57616;BME280;43816;52.054;-9.494;2023-12-28T01:26:33;99084.81;;;17.89;44.74
57616;BME280;43816;52.054;-9.494;2023-12-28T01:26:44;99109.72;;;17.99;44.76
57616;BME280;43816;52.054;-9.494;2023-12-28T01:26:54;99114.78;;;18.09;44.60
57616;BME280;43816;52.054;-9.494;2023-12-28T01:27:04;99121.06;;;18.09;44.49
57616;BME280;43816;52.054;-9.494;2023-12-28T01:27:15;99097.16;;;17.98;44.72
57616;BME280;43816;52.054;-9.494;2023-12-28T01:27:25;99110.78;;;18.05;44.61
57616;BME280;43816;52.054;-9.494;2023-12-28T01:27:36;99115.81;;;18.08;44.65
57616;BME280;43816;52.054;-9.494;2023-12-28T01:27:46;99104.09;;;18.01;44.71
57616;BME280;43816;52.054;-9.494;2023-12-28T01:27:56;99068.44;;;17.82;44.54
57616;BME280;43816;52.054;-9.494;2023-12-28T01:28:06;99078.50;;;17.88;44.57
57616;BME280;43816;52.054;-9.494;2023-12-28T01:28:17;99110.16;;;18.09;44.50
57616;BME280;43816;52.054;-9.494;2023-12-28T01:28:27;99085.44;;;17.91;44.65
57616;BME280;43816;52.054;-9.494;2023-12-28T01:28:37;99111.84;;;18.10;44.67
57616;BME280;43816;52.054;-9.494;2023-12-28T01:28:47;99103.88;;;18.02;44.46
57616;BME280;43816;52.054;-9.494;2023-12-28T01:28:58;99094.44;;;17.98;44.64
57616;BME280;43816;52.054;-9.494;2023-12-28T01:29:08;99110.16;;;18.09;44.55
57616;BME280;43816;52.054;-9.494;2023-12-28T01:29:18;99111.44;;;18.07;44.45
57616;BME280;43816;52.054;-9.494;2023-12-28T01:29:29;99090.47;;;17.94;44.42
57616;BME280;43816;52.054;-9.494;2023-12-28T01:29:39;99114.56;;;18.10;44.81
57616;BME280;43816;52.054;-9.494;2023-12-28T01:29:49;99093.19;;;17.94;44.50
57616;BME280;43816;52.054;-9.494;2023-12-28T01:29:59;99110.78;;;18.05;44.60
57616;BME280;43816;52.054;-9.494;2023-12-28T01:30:10;99112.25;;;18.07;44.61
57616;BME280;43816;52.054;-9.494;2023-12-28T01:30:26;99101.56;;;17.99;44.75
57616;BME280;43816;52.054;-9.494;2023-12-28T01:30:36;99095.50;;;17.90;44.54
57616;BME280;43816;52.054;-9.494;2023-12-28T01:30:46;99104.50;;;18.04;44.11
57616;BME280;43816;52.054;-9.494;2023-12-28T01:30:57;99086.66;;;17.88;44.57
57616;BME280;43816;52.054;-9.494;2023-12-28T01:31:07;99120.84;;;18.11;44.51
57616;BME280;43816;52.054;-9.494;2023-12-28T01:31:17;99082.72;;;17.91;44.47
57616;BME280;43816;52.054;-9.494;2023-12-28T01:31:27;99125.47;;;18.10;44.86
57616;BME280;43816;52.054;-9.494;2023-12-28T01:31:38;99117.91;;;18.06;44.79
57616;BME280;43816;52.054;-9.494;2023-12-28T01:31:48;99129.84;;;18.11;44.74
57616;BME280;43816;52.054;-9.494;2023-12-28T01:31:58;99102.00;;;18.03;44.54
57616;BME280;43816;52.054;-9.494;2023-12-28T01:32:09;99125.47;;;18.10;44.63
57616;BME280;43816;52.054;-9.494;2023-12-28T01:32:19;99104.28;;;17.99;44.38
57616;BME280;43816;52.054;-9.494;2023-12-28T01:32:32;99109.13;;;18.04;44.53
57616;BME280;43816;52.054;-9.494;2023-12-28T01:32:42;99101.56;;;17.99;44.57
57616;BME280;43816;52.054;-9.494;2023-12-28T01:32:55;99108.72;;;18.07;44.15
57616;BME280;43816;52.054;-9.494;2023-12-28T01:33:06;99106.59;;;18.02;44.28
57616;BME280;43816;52.054;-9.494;2023-12-28T01:33:16;99096.94;;;17.93;44.64
57616;BME280;43816;52.054;-9.494;2023-12-28T01:33:26;99122.31;;;18.07;44.87
57616;BME280;43816;52.054;-9.494;2023-12-28T01:33:37;99116.88;;;18.07;44.54
57616;BME280;43816;52.054;-9.494;2023-12-28T01:33:47;99109.94;;;18.04;44.43
57616;BME280;43816;52.054;-9.494;2023-12-28T01:33:57;99116.63;;;18.08;44.50
57616;BME280;43816;52.054;-9.494;2023-12-28T01:34:07;99100.75;;;18.05;44.35
57616;BME280;43816;52.054;-9.494;2023-12-28T01:34:18;99107.00;;;17.99;44.67
57616;BME280;43816;52.054;-9.494;2023-12-28T01:34:31;99118.94;;;18.11;44.46
57616;BME280;43816;52.054;-9.494;2023-12-28T01:34:41;99108.25;;;18.03;44.66
57616;BME280;43816;52.054;-9.494;2023-12-28T01:34:52;99095.72;;;17.96;44.53
57616;BME280;43816;52.054;-9.494;2023-12-28T01:35:02;99120.00;;;18.10;44.60
57616;BME280;43816;52.054;-9.494;2023-12-28T01:35:12;99087.31;;;17.90;44.61
57616;BME280;43816;52.054;-9.494;2023-12-28T01:35:25;99086.06;;;17.93;44.47
57616;BME280;43816;52.054;-9.494;2023-12-28T01:35:36;99064.25;;;17.80;44.72
57616;BME280;43816;52.054;-9.494;2023-12-28T01:35:46;99109.53;;;18.07;44.68
57616;BME280;43816;52.054;-9.494;2023-12-28T01:35:56;99108.25;;;18.03;44.62
57616;BME280;43816;52.054;-9.494;2023-12-28T01:36:19;99104.31;;;18.06;44.75
57616;BME280;43816;52.054;-9.494;2023-12-28T01:36:30;99108.25;;;18.03;44.60
57616;BME280;43816;52.054;-9.494;2023-12-28T01:36:40;99095.09;;;18.00;44.45
57616;BME280;43816;52.054;-9.494;2023-12-28T01:36:50;99096.56;;;18.03;44.62
57616;BME280;43816;52.054;-9.494;2023-12-28T01:37:01;99112.47;;;18.12;44.62
57616;BME280;43816;52.054;-9.494;2023-12-28T01:37:11;99114.56;;;18.10;44.57
57616;BME280;43816;52.054;-9.494;2023-12-28T01:37:23;99097.81;;;18.00;44.73
57616;BME280;43816;52.054;-9.494;2023-12-28T01:37:33;99117.91;;;18.12;44.52
57616;BME280;43816;52.054;-9.494;2023-12-28T01:37:43;99121.69;;;18.11;44.14
57616;BME280;43816;52.054;-9.494;2023-12-28T01:37:54;99103.28;;;18.07;44.51
57616;BME280;43816;52.054;-9.494;2023-12-28T01:38:05;99077.28;;;17.91;44.37
57616;BME280;43816;52.054;-9.494;2023-12-28T01:38:15;99043.72;;;17.70;44.57
57616;BME280;43816;52.054;-9.494;2023-12-28T01:38:25;99115.41;;;18.11;44.45
57616;BME280;43816;52.054;-9.494;2023-12-28T01:38:35;99104.09;;;18.07;44.57
57616;BME280;43816;52.054;-9.494;2023-12-28T01:38:46;99092.56;;;17.99;44.51
57616;BME280;43816;52.054;-9.494;2023-12-28T01:38:56;99099.47;;;18.01;44.44
57616;BME280;43816;52.054;-9.494;2023-12-28T01:39:07;99108.47;;;18.08;44.59
57616;BME280;43816;52.054;-9.494;2023-12-28T01:39:20;99101.16;;;18.02;44.41
57616;BME280;43816;52.054;-9.494;2023-12-28T01:39:30;99093.00;;;17.96;44.61
57616;BME280;43816;52.054;-9.494;2023-12-28T01:39:40;99098.22;;;17.97;44.54
57616;BME280;43816;52.054;-9.494;2023-12-28T01:39:51;99109.13;;;18.10;44.47
57616;BME280;43816;52.054;-9.494;2023-12-28T01:40:01;99110.38;;;18.08;44.51
57616;BME280;43816;52.054;-9.494;2023-12-28T01:40:11;99114.56;;;18.10;44.48
57616;BME280;43816;52.054;-9.494;2023-12-28T01:40:28;99114.56;;;18.10;44.57
57616;BME280;43816;52.054;-9.494;2023-12-28T01:40:44;99080.00;;;17.98;44.61
57616;BME280;43816;52.054;-9.494;2023-12-28T01:40:54;99095.72;;;18.02;44.60
57616;BME280;43816;52.054;-9.494;2023-12-28T01:41:04;99095.72;;;18.02;44.71
57616;BME280;43816;52.054;-9.494;2023-12-28T01:41:15;99082.53;;;17.99;44.65
57616;BME280;43816;52.054;-9.494;2023-12-28T01:41:25;99096.75;;;18.01;44.49
57616;BME280;43816;52.054;-9.494;2023-12-28T01:41:35;99098.03;;;18.05;44.66
57616;BME280;43816;52.054;-9.494;2023-12-28T01:41:49;99100.75;;;18.05;44.30
57616;BME280;43816;52.054;-9.494;2023-12-28T01:41:59;99114.56;;;18.10;44.37
57616;BME280;43816;52.054;-9.494;2023-12-28T01:42:12;99083.97;;;17.95;44.14
57616;BME280;43816;52.054;-9.494;2023-12-28T01:42:22;99107.66;;;18.08;44.44
57616;BME280;43816;52.054;-9.494;2023-12-28T01:42:32;99109.13;;;18.10;44.48
57616;BME280;43816;52.054;-9.494;2023-12-28T01:42:43;99103.28;;;18.07;44.59
57616;BME280;43816;52.054;-9.494;2023-12-28T01:42:57;99096.97;;;18.00;44.49
57616;BME280;43816;52.054;-9.494;2023-12-28T01:43:08;99089.84;;;17.99;44.43
57616;BME280;43816;52.054;-9.494;2023-12-28T01:43:18;99092.38;;;18.00;44.61
57616;BME280;43816;52.054;-9.494;2023-12-28T01:43:28;99020.88;;;17.51;44.45
57616;BME280;43816;52.054;-9.494;2023-12-28T01:43:39;99090.47;;;18.01;44.47
57616;BME280;43816;52.054;-9.494;2023-12-28T01:43:52;99098.66;;;18.07;44.90
57616;BME280;43816;52.054;-9.494;2023-12-28T01:44:02;99085.66;;;17.96;44.45
57616;BME280;43816;52.054;-9.494;2023-12-28T01:44:16;99098.66;;;18.07;44.79
57616;BME280;43816;52.054;-9.494;2023-12-28T01:44:26;99105.56;;;18.10;44.55
57616;BME280;43816;52.054;-9.494;2023-12-28T01:44:36;99103.69;;;18.10;44.48
57616;BME280;43816;52.054;-9.494;2023-12-28T01:44:46;99096.97;;;18.06;44.27
57616;BME280;43816;52.054;-9.494;2023-12-28T01:44:57;99088.59;;;18.01;44.61
57616;BME280;43816;52.054;-9.494;2023-12-28T01:45:07;99109.13;;;18.10;44.45
57616;BME280;43816;52.054;-9.494;2023-12-28T01:45:25;99112.69;;;18.11;44.49
57616;BME280;43816;52.054;-9.494;2023-12-28T01:45:35;99112.25;;;18.07;44.66
57616;BME280;43816;52.054;-9.494;2023-12-28T01:45:48;99095.09;;;18.00;44.62
57616;BME280;43816;52.054;-9.494;2023-12-28T01:45:59;99085.66;;;18.03;44.71
57616;BME280;43816;52.054;-9.494;2023-12-28T01:46:15;99083.97;;;18.02;44.57
57616;BME280;43816;52.054;-9.494;2023-12-28T01:46:29;99054.22;;;17.87;44.68
57616;BME280;43816;52.054;-9.494;2023-12-28T01:46:40;99086.06;;;18.00;44.62
57616;BME280;43816;52.054;-9.494;2023-12-28T01:46:50;99085.88;;;18.01;44.50
57616;BME280;43816;52.054;-9.494;2023-12-28T01:47:01;99074.97;;;17.94;44.46
57616;BME280;43816;52.054;-9.494;2023-12-28T01:47:11;99106.81;;;18.07;44.39
57616;BME280;43816;52.054;-9.494;2023-12-28T01:47:21;99091.53;;;18.06;44.61
57616;BME280;43816;52.054;-9.494;2023-12-28T01:47:32;99096.97;;;18.06;44.64
57616;BME280;43816;52.054;-9.494;2023-12-28T01:47:42;99081.25;;;17.95;44.36
57616;BME280;43816;52.054;-9.494;2023-12-28T01:47:55;99086.94;;;18.00;44.31
57616;BME280;43816;52.054;-9.494;2023-12-28T01:48:08;99100.97;;;18.10;44.37